SUSO

Nueva Hesperides International Airport

Salto, Uruguay
SUSO TAF 181730Z 1818/1918 16015KT 9999 SCT015 BKN070 TX25/1918Z TN16/1909Z TEMPO 1818/1824 16015G25KT 3000 RA BKN008 OVC060
Issued Valid From Valid To
Jan-18 @ 17:30 UTC
(3 hours ago)
Jan-18 @ 18:00 UTC
(2 hours ago)
Jan-19 @ 18:00 UTC
(in 22 hours)
Jan-18 @ 18:00 to Jan-19 @ 18:00
SUSO TAF 181730Z 1818/1918 16015KT 9999 SCT015 BKN070 TX25/1918Z TN16/1909Z
Wind Visibility Clouds
160° at 15 knots 10,000+ meters
  • Scattered at 1,500' AGL
  • Broken at 7,000' AGL
Temporary Jan-18 @ 18:00 to Jan-19 @ 00:00
TEMPO 1818/1824 16015G25KT 3000 RA BKN008 OVC060
Wind Visibility Clouds Conditions
160° at 15 knots
 Gusting to 25 knots
2,993 meters
  • Broken at 800' AGL
  • Overcast at 6,000' AGL
  • Rain
SUSO TAF 181730Z 1818/1918 16015KT 9999 SCT015 BKN070 TX25/1918Z TN16/1909Z TEMPO 1818/1824 16015G25KT 3000 RA BKN008 OVC060
Issued Jan-18 @ 17:30 UTC
(3 hours ago)
Valid From Jan-18 @ 18:00 UTC
(2 hours ago)
Valid To Jan-19 @ 18:00 UTC
(in 22 hours)
Jan-18 @ 18:00 - Jan-19 @ 18:00
Wind Visibility
160° at 15 knots 10,000+ meters
Clouds
  • Scattered at 1,500' AGL
  • Broken at 7,000' AGL
Temporary Jan-18 @ 18:00 - Jan-19 @ 00:00
Wind Visibility
160° at 15 knots
 Gusting to 25 knots
2,993 meters
Clouds
  • Broken at 800' AGL
  • Overcast at 6,000' AGL
Conditions
  • Rain